Time;durP1;ratioP1;P1;durP2;ratioP2;P2;SDS_P1;SDS_P2;PMS_P1;PMS_P2;Temp;Humidity;BMP_temperature;BMP_pressure;BME280_temperature;BME280_humidity;BME280_pressure;Samples;Min_cycle;Max_cycle;Signal;HPM_P1;HPM_P2
2022/04/16 00:02:24;;;;;;;;;;;6.00;99.90;;;;;;5051809;28;19908;-75
2022/04/16 00:04:50;;;;;;;;;;;6.20;99.90;;;;;;5051777;28;20385;-75
2022/04/16 00:07:15;;;;;;;;;;;6.40;99.90;;;;;;5052055;28;19931;-75
2022/04/16 00:09:42;;;;;;;;;;;6.30;99.90;;;;;;5048183;28;19944;-75
2022/04/16 00:12:09;;;;;;;;;;;6.40;99.90;;;;;;5051399;28;19928;-75
2022/04/16 00:14:36;;;;;;;;;;;6.30;99.90;;;;;;5051471;28;19908;-75
2022/04/16 00:17:01;;;;;;;;;;;6.30;99.90;;;;;;5051792;28;19944;-75
2022/04/16 00:19:27;;;;;;;;;;;6.30;99.90;;;;;;5051755;28;19956;-75
2022/04/16 00:21:53;;;;;;;;;;;6.00;99.90;;;;;;5051473;28;19909;-75
2022/04/16 00:24:18;;;;;;;;;;;5.80;99.90;;;;;;5050053;28;19916;-75
2022/04/16 00:26:46;;;;;;;;;;;5.70;99.90;;;;;;5051696;28;19909;-76
2022/04/16 00:29:12;;;;;;;;;;;5.60;99.90;;;;;;5051513;28;19916;-75
2022/04/16 00:31:38;;;;;;;;;;;5.50;99.90;;;;;;5051230;28;20370;-75
2022/04/16 00:34:05;;;;;;;;;;;5.40;99.90;;;;;;5051250;28;19908;-75
2022/04/16 00:36:30;;;;;;;;;;;5.30;99.90;;;;;;5051493;28;19913;-75
2022/04/16 00:38:56;;;;;;;;;;;5.10;99.90;;;;;;5048940;28;19962;-75
2022/04/16 00:41:22;;;;;;;;;;;5.20;99.90;;;;;;5048311;28;19916;-75
2022/04/16 00:43:48;;;;;;;;;;;5.00;99.90;;;;;;5051002;28;19916;-75
2022/04/16 00:46:13;;;;;;;;;;;4.80;99.90;;;;;;5049453;28;19909;-75
2022/04/16 00:48:39;;;;;;;;;;;4.70;99.90;;;;;;5051381;28;19955;-75
2022/04/16 00:51:04;;;;;;;;;;;4.80;99.90;;;;;;5051033;28;20458;-75
2022/04/16 00:53:30;;;;;;;;;;;4.70;99.90;;;;;;5050874;28;19909;-75
2022/04/16 00:55:59;;;;;;;;;;;4.60;99.90;;;;;;5051300;28;19920;-75
2022/04/16 00:58:25;;;;;;;;;;;4.70;99.90;;;;;;5051208;28;19920;-75
2022/04/16 01:00:51;;;;;;;;;;;4.70;99.90;;;;;;5051152;28;19909;-75
2022/04/16 01:03:17;;;;;;;;;;;4.60;99.90;;;;;;5050766;28;19908;-75
2022/04/16 01:05:42;;;;;;;;;;;4.60;99.90;;;;;;5051300;28;19909;-75
2022/04/16 01:08:08;;;;;;;;;;;4.50;99.90;;;;;;5051117;28;19909;-75
2022/04/16 01:10:34;;;;;;;;;;;4.60;99.90;;;;;;5049170;28;19909;-75
2022/04/16 01:13:04;;;;;;;;;;;4.50;99.90;;;;;;5050519;28;19912;-75
2022/04/16 01:15:29;;;;;;;;;;;4.60;99.90;;;;;;5051052;28;19909;-75
2022/04/16 01:17:55;;;;;;;;;;;4.50;99.90;;;;;;5051001;28;19943;-75
2022/04/16 01:20:22;;;;;;;;;;;4.40;99.90;;;;;;5050927;28;19955;-75
2022/04/16 01:22:48;;;;;;;;;;;4.50;99.90;;;;;;5050812;28;19913;-75
2022/04/16 01:25:13;;;;;;;;;;;4.50;99.90;;;;;;5050730;28;19916;-75
2022/04/16 01:27:43;;;;;;;;;;;4.40;99.90;;;;;;5050974;28;19908;-74
2022/04/16 01:30:12;;;;;;;;;;;4.30;99.90;;;;;;5044904;28;19909;-75
2022/04/16 01:32:38;;;;;;;;;;;4.40;99.90;;;;;;5050682;28;19919;-75
2022/04/16 01:35:07;;;;;;;;;;;4.30;99.90;;;;;;5050567;28;19909;-75
2022/04/16 01:37:37;;;;;;;;;;;4.20;99.90;;;;;;5049586;28;20453;-74
2022/04/16 01:40:07;;;;;;;;;;;4.30;99.90;;;;;;5046650;28;19931;-75
2022/04/16 01:42:33;;;;;;;;;;;4.40;99.90;;;;;;5050236;28;19947;-75
2022/04/16 01:45:00;;;;;;;;;;;4.40;99.90;;;;;;5051160;28;19945;-75
2022/04/16 01:47:27;;;;;;;;;;;4.30;99.90;;;;;;5053589;28;20402;-75
2022/04/16 01:49:52;;;;;;;;;;;4.30;99.90;;;;;;5054514;28;19909;-75
2022/04/16 01:52:18;;;;;;;;;;;4.20;99.90;;;;;;5054330;28;19920;-75
2022/04/16 01:54:43;;;;;;;;;;;4.00;99.90;;;;;;5054230;28;19909;-75
2022/04/16 01:57:09;;;;;;;;;;;3.90;99.90;;;;;;5054785;28;19908;-75
2022/04/16 01:59:34;;;;;;;;;;;3.90;99.90;;;;;;5054469;28;20011;-75
2022/04/16 02:02:00;;;;;;;;;;;3.80;99.90;;;;;;5054191;28;19916;-75
2022/04/16 02:04:26;;;;;;;;;;;3.60;99.90;;;;;;5053973;28;19920;-75
2022/04/16 02:06:52;;;;;;;;;;;3.80;99.90;;;;;;5054337;28;20347;-75
2022/04/16 02:09:17;;;;;;;;;;;3.90;99.90;;;;;;5049048;28;19915;-75
2022/04/16 02:11:43;;;;;;;;;;;3.90;99.90;;;;;;5053531;28;20019;-75
2022/04/16 02:14:09;;;;;;;;;;;3.90;99.90;;;;;;5053751;28;19931;-75
2022/04/16 02:16:34;;;;;;;;;;;3.80;99.90;;;;;;5054116;28;19909;-75
2022/04/16 02:19:00;;;;;;;;;;;3.80;99.90;;;;;;5053850;28;19920;-75
2022/04/16 02:21:26;;;;;;;;;;;4.10;99.90;;;;;;5052483;28;19998;-74
2022/04/16 02:23:52;;;;;;;;;;;4.50;99.90;;;;;;5053703;28;19916;-75
2022/04/16 02:26:20;;;;;;;;;;;4.70;99.90;;;;;;5053792;28;19909;-75
2022/04/16 02:28:47;;;;;;;;;;;4.90;99.90;;;;;;5053858;28;19913;-75
2022/04/16 02:31:12;;;;;;;;;;;5.00;99.90;;;;;;5053554;28;19909;-75
2022/04/16 02:33:38;;;;;;;;;;;5.10;99.90;;;;;;5053191;28;20373;-75
2022/04/16 02:36:05;;;;;;;;;;;5.10;99.90;;;;;;5053814;28;19915;-75
2022/04/16 02:38:30;;;;;;;;;;;5.00;99.90;;;;;;5053680;28;19968;-75
2022/04/16 02:40:56;;;;;;;;;;;5.00;99.90;;;;;;5051090;28;20393;-75
2022/04/16 02:43:21;;;;;;;;;;;5.20;99.90;;;;;;5053001;28;19932;-75
2022/04/16 02:48:32;;;;;;;;;;;5.10;99.90;;;;;;5053544;28;19916;-75
2022/04/16 02:50:57;;;;;;;;;;;4.70;99.90;;;;;;5053441;28;19909;-75
2022/04/16 02:53:26;;;;;;;;;;;4.60;99.90;;;;;;5053024;28;19913;-75
2022/04/16 02:55:54;;;;;;;;;;;4.50;99.90;;;;;;5052987;28;19991;-75
2022/04/16 02:58:20;;;;;;;;;;;4.40;99.90;;;;;;5052365;28;19909;-75
2022/04/16 03:00:45;;;;;;;;;;;4.40;99.90;;;;;;5053179;28;19912;-74
2022/04/16 03:03:11;;;;;;;;;;;4.20;99.90;;;;;;5052639;28;19908;-74
2022/04/16 03:05:36;;;;;;;;;;;4.10;99.90;;;;;;5053077;28;19912;-74
2022/04/16 03:08:06;;;;;;;;;;;3.90;99.90;;;;;;5053021;28;19908;-75
2022/04/16 03:10:31;;;;;;;;;;;3.80;99.90;;;;;;5046187;28;19992;-75
2022/04/16 03:12:57;;;;;;;;;;;3.70;99.90;;;;;;5052350;28;20024;-74
2022/04/16 03:18:07;;;;;;;;;;;3.60;99.90;;;;;;5052836;28;20000;-75
2022/04/16 03:20:33;;;;;;;;;;;3.60;99.90;;;;;;5052665;28;19909;-75
2022/04/16 03:22:59;;;;;;;;;;;3.50;99.90;;;;;;5052741;28;19917;-75
2022/04/16 03:25:25;;;;;;;;;;;3.40;99.90;;;;;;5052388;28;19909;-75
2022/04/16 03:27:50;;;;;;;;;;;3.30;99.90;;;;;;5052444;28;20003;-75
2022/04/16 03:30:16;;;;;;;;;;;3.30;99.90;;;;;;5051438;28;19908;-75
2022/04/16 03:32:41;;;;;;;;;;;3.20;99.90;;;;;;5052012;28;19966;-74
2022/04/16 03:35:07;;;;;;;;;;;3.10;99.90;;;;;;5052230;28;19959;-75
2022/04/16 03:37:35;;;;;;;;;;;3.00;99.90;;;;;;5052069;28;20282;-74
2022/04/16 03:40:02;;;;;;;;;;;2.90;99.90;;;;;;5051980;28;20435;-75
2022/04/16 03:42:27;;;;;;;;;;;2.90;99.90;;;;;;5037457;28;20012;-74
2022/04/16 03:44:53;;;;;;;;;;;3.00;99.90;;;;;;5051340;28;19940;-74
2022/04/16 03:47:18;;;;;;;;;;;3.10;99.90;;;;;;5052112;28;19909;-74
2022/04/16 03:49:44;;;;;;;;;;;3.00;99.90;;;;;;5052002;28;20321;-75
2022/04/16 03:52:09;;;;;;;;;;;3.00;99.90;;;;;;5051856;28;19913;-75
2022/04/16 04:00:05;;;;;;;;;;;3.10;99.90;;;;;;5046908;28;19915;-75
2022/04/16 04:02:33;;;;;;;;;;;3.30;99.90;;;;;;5051756;28;19919;-75
2022/04/16 04:04:58;;;;;;;;;;;3.40;99.90;;;;;;5051728;28;19971;-75
2022/04/16 04:07:25;;;;;;;;;;;3.30;99.90;;;;;;5052025;28;19908;-74
2022/04/16 04:09:51;;;;;;;;;;;3.40;99.90;;;;;;5051659;28;19908;-74
2022/04/16 04:12:16;;;;;;;;;;;3.50;99.90;;;;;;5051681;28;20004;-74
2022/04/16 04:14:43;;;;;;;;;;;3.60;99.90;;;;;;5052069;28;19948;-74
2022/04/16 04:17:09;;;;;;;;;;;3.60;99.90;;;;;;5051152;28;20341;-75
2022/04/16 04:19:35;;;;;;;;;;;3.80;99.90;;;;;;5052665;28;19939;-74
2022/04/16 04:22:04;;;;;;;;;;;3.80;99.90;;;;;;5053364;28;19959;-74
2022/04/16 04:24:30;;;;;;;;;;;3.90;99.90;;;;;;5047126;28;19908;-76
2022/04/16 04:26:56;;;;;;;;;;;3.90;99.90;;;;;;5051717;28;20346;-74
2022/04/16 04:29:22;;;;;;;;;;;3.90;99.90;;;;;;5051634;28;19909;-75
2022/04/16 04:31:47;;;;;;;;;;;4.00;99.90;;;;;;5051139;28;19965;-75
2022/04/16 04:34:13;;;;;;;;;;;4.10;99.90;;;;;;5050264;28;19916;-75
2022/04/16 04:36:38;;;;;;;;;;;4.10;99.90;;;;;;5046084;28;19916;-75
2022/04/16 04:39:04;;;;;;;;;;;4.10;99.90;;;;;;5047804;28;19909;-75
2022/04/16 04:41:29;;;;;;;;;;;3.90;99.90;;;;;;5049514;28;20357;-75
2022/04/16 04:43:55;;;;;;;;;;;3.90;99.90;;;;;;5050691;28;19919;-75
2022/04/16 04:46:20;;;;;;;;;;;4.00;99.90;;;;;;5051292;28;19952;-75
2022/04/16 04:48:46;;;;;;;;;;;4.10;99.90;;;;;;5051195;28;19916;-75
2022/04/16 04:51:12;;;;;;;;;;;4.00;99.90;;;;;;5051098;28;20323;-74
2022/04/16 04:53:38;;;;;;;;;;;4.10;99.90;;;;;;5050725;28;19908;-74
2022/04/16 04:56:03;;;;;;;;;;;4.20;99.90;;;;;;5051281;28;19978;-75
2022/04/16 04:58:29;;;;;;;;;;;4.30;99.90;;;;;;5051267;28;19909;-75
2022/04/16 05:00:54;;;;;;;;;;;4.50;99.90;;;;;;5050970;28;19995;-74
2022/04/16 05:03:20;;;;;;;;;;;4.70;99.90;;;;;;5050663;28;19916;-75
2022/04/16 05:05:45;;;;;;;;;;;4.80;99.90;;;;;;5050964;28;20015;-75
2022/04/16 05:08:11;;;;;;;;;;;5.00;99.90;;;;;;5051077;28;19909;-75
2022/04/16 05:10:36;;;;;;;;;;;5.10;99.90;;;;;;5050204;28;19909;-75
2022/04/16 05:13:02;;;;;;;;;;;5.10;99.90;;;;;;5050568;28;19912;-75
2022/04/16 05:15:27;;;;;;;;;;;5.20;99.90;;;;;;5050816;28;20067;-75
2022/04/16 05:17:53;;;;;;;;;;;5.30;99.90;;;;;;5050831;28;19917;-75
2022/04/16 05:20:20;;;;;;;;;;;5.30;99.90;;;;;;5052216;28;19919;-75
2022/04/16 05:22:46;;;;;;;;;;;5.50;99.90;;;;;;5054763;28;20275;-75
2022/04/16 05:25:12;;;;;;;;;;;5.60;99.90;;;;;;5055119;28;19915;-75
2022/04/16 05:27:37;;;;;;;;;;;5.70;99.90;;;;;;5054942;28;19955;-75
2022/04/16 05:30:07;;;;;;;;;;;5.90;99.90;;;;;;5055010;28;20289;-75
2022/04/16 05:32:39;;;;;;;;;;;6.00;99.90;;;;;;5054457;28;19913;-75
2022/04/16 05:35:05;;;;;;;;;;;6.20;99.90;;;;;;5054568;28;19909;-75
2022/04/16 05:37:31;;;;;;;;;;;6.30;99.90;;;;;;5054591;28;19909;-75
2022/04/16 05:39:57;;;;;;;;;;;6.50;99.90;;;;;;5051710;28;19959;-75
2022/04/16 05:42:22;;;;;;;;;;;6.60;99.90;;;;;;5054218;28;19913;-75
2022/04/16 05:44:48;;;;;;;;;;;6.70;99.90;;;;;;5054315;28;19908;-75
2022/04/16 05:47:13;;;;;;;;;;;6.90;99.90;;;;;;5054457;28;20011;-76
2022/04/16 05:49:39;;;;;;;;;;;6.90;99.90;;;;;;5053947;28;19991;-75
2022/04/16 05:52:05;;;;;;;;;;;7.00;99.90;;;;;;5054170;28;19943;-75
2022/04/16 05:54:30;;;;;;;;;;;7.10;99.90;;;;;;5047733;28;19916;-75
2022/04/16 05:56:56;;;;;;;;;;;7.10;99.90;;;;;;5054386;28;19909;-75
2022/04/16 05:59:25;;;;;;;;;;;7.00;99.90;;;;;;5054361;28;19962;-75
2022/04/16 06:01:50;;;;;;;;;;;7.10;99.90;;;;;;5053728;28;19915;-75
2022/04/16 06:04:17;;;;;;;;;;;7.10;99.90;;;;;;5053943;28;19909;-75
2022/04/16 06:06:43;;;;;;;;;;;7.20;99.90;;;;;;5053194;28;19912;-75
2022/04/16 06:09:08;;;;;;;;;;;7.40;99.90;;;;;;5049820;28;19975;-75
2022/04/16 06:11:34;;;;;;;;;;;7.40;99.90;;;;;;5052456;28;20011;-75
2022/04/16 06:13:59;;;;;;;;;;;7.40;99.90;;;;;;5053586;28;19916;-75
2022/04/16 06:16:25;;;;;;;;;;;7.50;99.90;;;;;;5053926;28;19913;-75
2022/04/16 06:18:51;;;;;;;;;;;7.60;99.90;;;;;;5053875;28;20003;-75
2022/04/16 06:21:16;;;;;;;;;;;7.70;99.90;;;;;;5053614;28;19941;-75
2022/04/16 06:23:42;;;;;;;;;;;7.70;99.90;;;;;;5053468;28;20000;-75
2022/04/16 06:26:07;;;;;;;;;;;7.90;99.90;;;;;;5053891;28;19909;-75
2022/04/16 06:28:33;;;;;;;;;;;7.90;99.90;;;;;;5053786;28;19913;-75
2022/04/16 06:30:58;;;;;;;;;;;8.00;99.90;;;;;;5053227;28;19932;-75
2022/04/16 06:33:24;;;;;;;;;;;8.00;99.90;;;;;;5053198;28;20022;-75
2022/04/16 06:35:49;;;;;;;;;;;8.00;99.90;;;;;;5053569;28;20059;-75
2022/04/16 06:38:15;;;;;;;;;;;8.00;99.90;;;;;;5052668;28;19917;-75
2022/04/16 06:40:40;;;;;;;;;;;8.10;99.90;;;;;;5046330;28;20011;-75
2022/04/16 06:43:06;;;;;;;;;;;8.10;99.90;;;;;;5045728;28;19909;-75
2022/04/16 06:45:32;;;;;;;;;;;8.10;99.90;;;;;;5043715;28;19909;-75
2022/04/16 06:47:57;;;;;;;;;;;8.10;99.90;;;;;;5045515;28;19971;-75
2022/04/16 06:50:23;;;;;;;;;;;8.20;99.90;;;;;;5045359;28;19909;-75
2022/04/16 06:52:49;;;;;;;;;;;8.40;99.90;;;;;;5048423;28;19924;-75
2022/04/16 06:55:14;;;;;;;;;;;8.40;99.90;;;;;;5050801;28;20365;-75
2022/04/16 06:57:40;;;;;;;;;;;8.30;99.90;;;;;;5052500;28;19978;-75
2022/04/16 07:00:06;;;;;;;;;;;8.30;99.90;;;;;;5049613;28;19916;-75
2022/04/16 07:02:31;;;;;;;;;;;8.40;99.90;;;;;;5052804;28;19909;-75
2022/04/16 07:04:58;;;;;;;;;;;8.50;99.90;;;;;;5052666;28;19909;-75
2022/04/16 07:07:23;;;;;;;;;;;8.50;99.90;;;;;;5053087;28;19996;-75
2022/04/16 07:09:49;;;;;;;;;;;8.50;99.90;;;;;;5042992;28;19941;-75
2022/04/16 07:12:14;;;;;;;;;;;8.40;99.90;;;;;;5052313;28;19913;-75
2022/04/16 07:14:40;;;;;;;;;;;8.50;99.90;;;;;;5052509;28;20403;-75
2022/04/16 07:17:06;;;;;;;;;;;8.40;99.90;;;;;;5052641;28;20019;-76
2022/04/16 07:19:32;;;;;;;;;;;8.40;99.90;;;;;;5052827;28;19912;-75
2022/04/16 07:21:57;;;;;;;;;;;8.40;99.90;;;;;;5052473;28;19916;-75
2022/04/16 07:24:24;;;;;;;;;;;8.40;99.90;;;;;;5052488;28;19916;-75
2022/04/16 07:26:53;;;;;;;;;;;8.40;99.90;;;;;;5052626;28;19933;-75
2022/04/16 07:29:19;;;;;;;;;;;8.50;99.90;;;;;;5052461;28;19913;-75
2022/04/16 07:31:44;;;;;;;;;;;8.50;99.90;;;;;;5052192;28;19967;-75
2022/04/16 07:34:10;;;;;;;;;;;8.50;99.90;;;;;;5052100;28;19909;-75
2022/04/16 07:36:35;;;;;;;;;;;8.50;99.90;;;;;;5052524;28;20381;-75
2022/04/16 07:39:00;;;;;;;;;;;8.60;99.90;;;;;;5049743;28;19954;-75
2022/04/16 07:41:26;;;;;;;;;;;8.70;99.90;;;;;;5051353;28;20374;-75
2022/04/16 07:43:51;;;;;;;;;;;8.80;99.90;;;;;;5051405;28;19919;-75
2022/04/16 07:46:21;;;;;;;;;;;8.90;99.90;;;;;;5052215;28;19909;-75
2022/04/16 07:48:47;;;;;;;;;;;8.80;99.90;;;;;;5052181;28;20461;-75
2022/04/16 07:51:12;;;;;;;;;;;8.80;99.90;;;;;;5053273;28;19913;-75
2022/04/16 07:53:38;;;;;;;;;;;8.90;99.90;;;;;;5052840;28;20070;-75
2022/04/16 07:56:03;;;;;;;;;;;9.00;99.90;;;;;;5052322;28;19916;-75
2022/04/16 07:58:29;;;;;;;;;;;8.90;99.90;;;;;;5052293;28;20389;-75
2022/04/16 08:00:54;;;;;;;;;;;9.40;99.90;;;;;;5052207;28;19923;-74
2022/04/16 08:03:20;;;;;;;;;;;9.20;99.90;;;;;;5051728;28;19992;-75
2022/04/16 08:05:45;;;;;;;;;;;9.50;99.90;;;;;;5052381;28;19917;-75
2022/04/16 08:08:11;;;;;;;;;;;9.70;99.90;;;;;;5051901;28;19912;-75
2022/04/16 08:10:37;;;;;;;;;;;9.90;99.90;;;;;;5046848;28;20247;-74
2022/04/16 08:13:05;;;;;;;;;;;9.90;99.90;;;;;;5051248;28;19913;-74
2022/04/16 08:15:31;;;;;;;;;;;9.90;99.90;;;;;;5051851;28;19978;-75
2022/04/16 08:17:56;;;;;;;;;;;9.70;99.90;;;;;;5051630;28;19925;-75
2022/04/16 08:20:22;;;;;;;;;;;9.80;99.90;;;;;;5051446;28;19916;-75
2022/04/16 08:22:48;;;;;;;;;;;9.50;99.90;;;;;;5051944;28;19908;-75
2022/04/16 08:27:48;;;;;;;;;;;9.60;99.90;;;;;;5051737;28;19992;-75
2022/04/16 08:30:15;;;;;;;;;;;9.60;99.90;;;;;;5051505;28;20155;-75
2022/04/16 08:32:41;;;;;;;;;;;9.70;99.90;;;;;;5051105;28;20156;-76
2022/04/16 08:35:13;;;;;;;;;;;10.00;99.90;;;;;;5051206;28;19993;-75
2022/04/16 08:37:40;;;;;;;;;;;10.10;99.90;;;;;;5051005;28;19912;-75
2022/04/16 08:40:06;;;;;;;;;;;10.20;99.90;;;;;;5050892;28;19909;-75
2022/04/16 08:42:35;;;;;;;;;;;9.90;99.90;;;;;;5050723;28;20419;-74
2022/04/16 08:45:01;;;;;;;;;;;10.20;99.90;;;;;;5050855;28;20010;-75
2022/04/16 08:47:26;;;;;;;;;;;10.10;99.90;;;;;;5051226;28;20224;-75
2022/04/16 08:49:53;;;;;;;;;;;10.30;99.90;;;;;;5051521;28;20211;-75
2022/04/16 08:52:20;;;;;;;;;;;10.40;99.90;;;;;;5050966;28;19913;-75
2022/04/16 08:54:45;;;;;;;;;;;11.10;99.90;;;;;;5050820;28;19909;-75
2022/04/16 08:57:11;;;;;;;;;;;11.40;99.90;;;;;;5051183;28;19963;-75
2022/04/16 08:59:36;;;;;;;;;;;11.50;99.60;;;;;;5051064;28;20404;-75
2022/04/16 09:02:02;;;;;;;;;;;11.10;99.90;;;;;;5050906;28;19916;-74
2022/04/16 09:04:28;;;;;;;;;;;10.70;98.90;;;;;;5051009;28;19916;-75
2022/04/16 09:06:54;;;;;;;;;;;10.70;99.90;;;;;;5044528;28;19912;-75
2022/04/16 09:09:20;;;;;;;;;;;10.80;99.30;;;;;;5049978;28;19939;-75
2022/04/16 09:11:48;;;;;;;;;;;11.00;99.20;;;;;;5049742;28;19921;-75
2022/04/16 09:14:13;;;;;;;;;;;11.30;98.10;;;;;;5049168;28;19909;-75
2022/04/16 09:16:39;;;;;;;;;;;11.30;98.50;;;;;;5049002;28;20333;-75
2022/04/16 09:19:04;;;;;;;;;;;11.50;98.30;;;;;;5050924;28;19946;-75
2022/04/16 09:21:30;;;;;;;;;;;11.80;98.60;;;;;;5051400;28;19918;-75
2022/04/16 09:23:59;;;;;;;;;;;12.30;96.30;;;;;;5050661;28;20003;-75
2022/04/16 09:26:25;;;;;;;;;;;12.80;96.80;;;;;;5051045;28;19916;-75
2022/04/16 09:28:51;;;;;;;;;;;15.00;92.20;;;;;;5051007;28;19908;-75
2022/04/16 09:31:17;;;;;;;;;;;14.10;92.50;;;;;;5050630;28;19909;-75
2022/04/16 09:33:44;;;;;;;;;;;14.30;91.70;;;;;;5050602;28;19967;-74
2022/04/16 09:36:09;;;;;;;;;;;13.30;93.00;;;;;;5049097;28;20282;-75
2022/04/16 09:38:35;;;;;;;;;;;13.20;93.10;;;;;;5049626;28;20029;-76
2022/04/16 09:41:08;;;;;;;;;;;12.50;93.40;;;;;;5046317;28;19920;-75
2022/04/16 09:43:36;;;;;;;;;;;11.90;93.70;;;;;;5049982;28;19909;-74
2022/04/16 09:46:12;;;;;;;;;;;11.70;94.90;;;;;;5049409;28;19920;-75
2022/04/16 09:48:38;;;;;;;;;;;11.40;95.30;;;;;;5050292;28;19913;-75
2022/04/16 09:51:06;;;;;;;;;;;11.20;95.40;;;;;;5051607;28;19916;-75
2022/04/16 09:53:36;;;;;;;;;;;10.90;96.40;;;;;;5051009;28;19917;-76
2022/04/16 09:56:01;;;;;;;;;;;10.80;96.60;;;;;;5045595;28;19944;-75
2022/04/16 09:58:31;;;;;;;;;;;10.80;96.40;;;;;;5051726;28;19948;-75
2022/04/16 10:00:57;;;;;;;;;;;10.70;96.30;;;;;;5044298;28;19996;-76
2022/04/16 10:03:22;;;;;;;;;;;10.80;96.60;;;;;;5046229;28;19959;-75
2022/04/16 10:05:48;;;;;;;;;;;11.10;96.60;;;;;;5051055;28;19963;-75
2022/04/16 10:08:14;;;;;;;;;;;11.20;96.60;;;;;;5054299;28;19916;-76
2022/04/16 10:10:41;;;;;;;;;;;11.40;96.50;;;;;;5053734;28;19909;-75
2022/04/16 10:13:10;;;;;;;;;;;11.50;96.30;;;;;;5053681;28;19913;-75
2022/04/16 10:15:35;;;;;;;;;;;10.90;96.80;;;;;;5054169;28;20038;-75
2022/04/16 10:18:02;;;;;;;;;;;10.40;96.60;;;;;;5053011;28;19921;-75
2022/04/16 10:20:27;;;;;;;;;;;10.50;97.60;;;;;;5052767;28;19915;-75
2022/04/16 10:22:56;;;;;;;;;;;10.50;97.10;;;;;;5053532;28;20292;-75
2022/04/16 10:25:32;;;;;;;;;;;10.60;97.30;;;;;;5053856;28;20382;-75
2022/04/16 10:28:06;;;;;;;;;;;10.60;97.40;;;;;;5047609;28;19959;-75
2022/04/16 10:30:37;;;;;;;;;;;10.70;97.60;;;;;;5048259;28;20547;-75
2022/04/16 10:33:14;;;;;;;;;;;10.90;97.10;;;;;;5053730;28;19913;-75
2022/04/16 10:35:47;;;;;;;;;;;10.70;96.50;;;;;;5053957;28;19912;-74
2022/04/16 10:38:20;;;;;;;;;;;10.80;96.60;;;;;;5053872;28;19909;-75
2022/04/16 10:40:53;;;;;;;;;;;11.00;96.20;;;;;;5048439;28;19935;-75
2022/04/16 10:43:23;;;;;;;;;;;11.40;96.70;;;;;;5053161;28;19967;-74
2022/04/16 10:45:55;;;;;;;;;;;11.60;95.90;;;;;;5053781;28;19916;-75
2022/04/16 10:48:21;;;;;;;;;;;11.00;95.20;;;;;;5053536;28;19916;-74
2022/04/16 10:50:48;;;;;;;;;;;11.20;95.70;;;;;;5049477;28;19909;-74
2022/04/16 10:53:15;;;;;;;;;;;11.00;96.30;;;;;;5052913;28;20361;-74
2022/04/16 10:55:47;;;;;;;;;;;11.20;95.60;;;;;;5053337;28;19909;-75
2022/04/16 10:58:13;;;;;;;;;;;11.30;95.30;;;;;;5053407;28;19948;-75
2022/04/16 11:00:45;;;;;;;;;;;11.50;94.90;;;;;;5053243;28;19944;-75
2022/04/16 11:03:27;;;;;;;;;;;11.70;94.60;;;;;;5052937;28;19909;-74
2022/04/16 11:06:07;;;;;;;;;;;12.10;94.50;;;;;;5049059;28;19909;-75
2022/04/16 11:08:37;;;;;;;;;;;12.80;93.20;;;;;;5053256;28;19908;-74
2022/04/16 11:11:03;;;;;;;;;;;12.90;92.50;;;;;;5053032;28;20346;-75
2022/04/16 11:13:29;;;;;;;;;;;14.00;90.90;;;;;;5051167;28;19919;-75
2022/04/16 11:15:56;;;;;;;;;;;13.30;92.20;;;;;;5053171;28;19915;-75
2022/04/16 11:18:21;;;;;;;;;;;13.40;91.10;;;;;;5051839;28;19923;-75
2022/04/16 11:20:55;;;;;;;;;;;13.30;91.30;;;;;;5052933;28;19909;-75
2022/04/16 11:23:24;;;;;;;;;;;12.40;91.60;;;;;;5052817;28;20383;-74
2022/04/16 11:34:20;;;;;;;;;;;12.90;91.30;;;;;;5052490;28;20008;-75
2022/04/16 11:36:50;;;;;;;;;;;13.00;91.30;;;;;;5046504;28;19940;-75
2022/04/16 11:39:16;;;;;;;;;;;13.10;92.70;;;;;;5052329;28;19919;-74
2022/04/16 11:42:09;;;;;;;;;;;12.50;91.60;;;;;;5056942;28;19913;-75
2022/04/16 11:44:41;;;;;;;;;;;12.50;91.50;;;;;;5051737;28;19909;-75
2022/04/16 11:47:07;;;;;;;;;;;12.10;92.10;;;;;;5052128;28;19948;-75
2022/04/16 11:49:33;;;;;;;;;;;12.10;92.00;;;;;;5052304;28;20154;-75
2022/04/16 11:51:59;;;;;;;;;;;11.90;92.80;;;;;;5051976;28;19920;-76
2022/04/16 11:54:28;;;;;;;;;;;12.00;93.20;;;;;;5051941;28;19909;-75
2022/04/16 11:56:57;;;;;;;;;;;12.50;93.10;;;;;;5052095;28;19912;-74
2022/04/16 11:59:24;;;;;;;;;;;12.50;91.30;;;;;;5052047;28;19919;-75
2022/04/16 12:02:00;;;;;;;;;;;12.50;92.30;;;;;;5051917;28;19962;-75
2022/04/16 12:04:35;;;;;;;;;;;12.70;90.50;;;;;;5051668;28;19931;-75
2022/04/16 12:07:01;;;;;;;;;;;12.30;90.90;;;;;;5045556;28;20289;-75
2022/04/16 12:09:27;;;;;;;;;;;11.90;91.30;;;;;;5051502;28;19908;-76
2022/04/16 12:11:55;;;;;;;;;;;12.20;92.20;;;;;;5050335;28;19920;-75
2022/04/16 12:14:23;;;;;;;;;;;12.00;90.10;;;;;;5051070;28;20350;-75
2022/04/16 12:17:01;;;;;;;;;;;12.20;89.80;;;;;;5050972;28;19916;-75
2022/04/16 12:19:30;;;;;;;;;;;12.40;91.00;;;;;;5046403;28;19962;-75
2022/04/16 12:21:56;;;;;;;;;;;12.80;90.90;;;;;;5051124;28;20329;-75
2022/04/16 12:24:28;;;;;;;;;;;12.90;89.90;;;;;;5051521;28;19916;-75
2022/04/16 12:26:55;;;;;;;;;;;12.40;90.10;;;;;;5051616;28;19958;-75
2022/04/16 12:29:28;;;;;;;;;;;12.80;90.40;;;;;;5051170;28;19983;-75
2022/04/16 12:31:58;;;;;;;;;;;14.50;83.40;;;;;;5051406;28;19913;-75
2022/04/16 12:34:24;;;;;;;;;;;14.50;85.50;;;;;;5051337;28;19913;-75
2022/04/16 12:36:49;;;;;;;;;;;14.90;81.70;;;;;;5051468;28;19909;-75
2022/04/16 12:39:15;;;;;;;;;;;14.30;85.70;;;;;;5048576;28;19995;-75
2022/04/16 12:41:40;;;;;;;;;;;14.00;81.50;;;;;;5051202;28;19908;-75
2022/04/16 12:44:06;;;;;;;;;;;14.00;84.10;;;;;;5051080;28;20511;-74
2022/04/16 12:46:31;;;;;;;;;;;13.50;81.70;;;;;;5051440;28;19924;-76
2022/04/16 12:48:57;;;;;;;;;;;13.00;83.40;;;;;;5051365;28;19955;-74
2022/04/16 12:51:24;;;;;;;;;;;13.20;87.40;;;;;;5051042;28;19915;-75
2022/04/16 12:53:49;;;;;;;;;;;14.00;85.60;;;;;;5050993;28;19948;-75
2022/04/16 12:56:15;;;;;;;;;;;13.90;84.00;;;;;;5051258;28;19909;-75
2022/04/16 12:58:40;;;;;;;;;;;14.00;82.40;;;;;;5050701;28;19944;-74
2022/04/16 13:01:06;;;;;;;;;;;13.20;83.10;;;;;;5055537;28;20000;-74
2022/04/16 13:03:32;;;;;;;;;;;12.80;83.40;;;;;;5050862;28;20290;-75
2022/04/16 13:05:58;;;;;;;;;;;12.70;83.70;;;;;;5051245;28;19916;-75
2022/04/16 13:08:24;;;;;;;;;;;12.90;81.60;;;;;;5051088;28;19909;-75
2022/04/16 13:10:50;;;;;;;;;;;13.30;81.20;;;;;;5045627;28;19971;-75
2022/04/16 13:13:15;;;;;;;;;;;12.80;81.80;;;;;;5050353;28;19960;-74
2022/04/16 13:15:40;;;;;;;;;;;12.40;85.40;;;;;;5051077;28;20282;-75
2022/04/16 13:18:06;;;;;;;;;;;12.10;84.30;;;;;;5050928;28;20366;-75
2022/04/16 13:20:32;;;;;;;;;;;12.10;84.30;;;;;;5050863;28;19909;-74
2022/04/16 13:22:57;;;;;;;;;;;12.30;83.70;;;;;;5050831;28;19915;-74
2022/04/16 13:25:24;;;;;;;;;;;12.60;86.20;;;;;;5050520;28;20293;-74
2022/04/16 13:27:49;;;;;;;;;;;12.20;81.40;;;;;;5049546;28;19912;-74
2022/04/16 13:30:15;;;;;;;;;;;12.60;84.50;;;;;;5050967;28;19916;-74
2022/04/16 13:32:40;;;;;;;;;;;12.80;81.80;;;;;;5050526;28;19912;-74
2022/04/16 13:35:06;;;;;;;;;;;13.10;81.90;;;;;;5050680;28;19920;-74
2022/04/16 13:37:32;;;;;;;;;;;12.70;82.00;;;;;;5050752;28;20377;-75
2022/04/16 13:42:41;;;;;;;;;;;12.80;78.40;;;;;;5053163;28;19971;-74
2022/04/16 13:45:07;;;;;;;;;;;12.10;79.40;;;;;;5054468;28;20374;-74
2022/04/16 13:47:33;;;;;;;;;;;11.80;80.30;;;;;;5054604;28;19916;-74
2022/04/16 13:49:58;;;;;;;;;;;12.10;85.80;;;;;;5054560;28;20374;-75
2022/04/16 13:52:24;;;;;;;;;;;12.40;82.80;;;;;;5053193;28;19961;-74
2022/04/16 13:54:49;;;;;;;;;;;12.80;82.00;;;;;;5053030;28;19913;-74
2022/04/16 13:57:15;;;;;;;;;;;13.00;79.80;;;;;;5054418;28;19909;-74
2022/04/16 13:59:40;;;;;;;;;;;12.50;80.70;;;;;;5054422;28;19934;-73
2022/04/16 14:02:06;;;;;;;;;;;12.10;79.30;;;;;;5054284;28;20361;-74
2022/04/16 14:07:16;;;;;;;;;;;13.90;75.60;;;;;;5054152;28;19958;-72
2022/04/16 14:09:42;;;;;;;;;;;17.40;69.50;;;;;;5053967;28;19913;-72
2022/04/16 14:12:07;;;;;;;;;;;19.50;63.60;;;;;;5053095;28;20348;-72
2022/04/16 14:14:33;;;;;;;;;;;18.20;61.50;;;;;;5053873;28;19944;-72
2022/04/16 14:16:58;;;;;;;;;;;16.90;62.10;;;;;;5053937;28;19963;-74
2022/04/16 14:19:24;;;;;;;;;;;14.00;71.60;;;;;;5053997;28;19920;-74
2022/04/16 14:21:52;;;;;;;;;;;13.90;72.60;;;;;;5051178;28;19916;-73
2022/04/16 14:24:18;;;;;;;;;;;16.70;66.70;;;;;;5051567;28;19909;-74
2022/04/16 14:26:46;;;;;;;;;;;18.80;60.00;;;;;;5053807;28;19915;-72
2022/04/16 14:29:11;;;;;;;;;;;19.40;59.70;;;;;;5053756;28;19909;-73
2022/04/16 14:31:37;;;;;;;;;;;19.70;57.10;;;;;;5053443;28;19908;-73
2022/04/16 14:34:04;;;;;;;;;;;20.00;57.60;;;;;;5053464;28;19909;-73
2022/04/16 14:36:29;;;;;;;;;;;20.40;56.20;;;;;;5053579;28;19948;-72
2022/04/16 14:38:55;;;;;;;;;;;17.80;59.20;;;;;;5051351;28;19948;-73
2022/04/16 14:41:20;;;;;;;;;;;19.70;57.00;;;;;;5050582;28;19909;-73
2022/04/16 14:43:53;;;;;;;;;;;20.00;55.00;;;;;;5053309;28;19920;-73
2022/04/16 14:46:18;;;;;;;;;;;19.60;55.40;;;;;;5046927;28;19915;-73
2022/04/16 14:48:44;;;;;;;;;;;20.10;54.30;;;;;;5053450;28;19909;-73